sensor_id;sensor_type;location;lat;lon;timestamp;pressure;altitude;pressure_sealevel;temperature;humidity
80118;BME280;69424;48.770;-1.564;2023-05-07T00:00:37;101474.10;;;15.28;79.94
80118;BME280;69424;48.770;-1.564;2023-05-07T00:03:20;101479.27;;;15.28;79.66
80118;BME280;69424;48.770;-1.564;2023-05-07T00:05:49;101481.42;;;15.31;79.99
80118;BME280;69424;48.770;-1.564;2023-05-07T00:08:17;101484.63;;;15.36;79.71
80118;BME280;69424;48.770;-1.564;2023-05-07T00:10:45;101488.02;;;15.39;79.27
80118;BME280;69424;48.770;-1.564;2023-05-07T00:13:14;101486.60;;;15.40;79.26
80118;BME280;69424;48.770;-1.564;2023-05-07T00:15:42;101487.84;;;15.40;79.18
80118;BME280;69424;48.770;-1.564;2023-05-07T00:18:10;101491.58;;;15.42;79.64
80118;BME280;69424;48.770;-1.564;2023-05-07T00:20:39;101496.92;;;15.44;79.67
80118;BME280;69424;48.770;-1.564;2023-05-07T00:23:07;101497.28;;;15.38;79.85
80118;BME280;69424;48.770;-1.564;2023-05-07T00:25:35;101498.34;;;15.34;80.06
80118;BME280;69424;48.770;-1.564;2023-05-07T00:28:03;101499.25;;;15.39;80.02
80118;BME280;69424;48.770;-1.564;2023-05-07T00:30:31;101497.64;;;15.43;80.14
80118;BME280;69424;48.770;-1.564;2023-05-07T00:33:00;101499.43;;;15.46;80.41
80118;BME280;69424;48.770;-1.564;2023-05-07T00:35:28;101494.80;;;15.49;80.52
80118;BME280;69424;48.770;-1.564;2023-05-07T00:37:57;101500.33;;;15.54;80.23
80118;BME280;69424;48.770;-1.564;2023-05-07T00:40:26;101502.11;;;15.59;80.43
80118;BME280;69424;48.770;-1.564;2023-05-07T00:42:53;101505.69;;;15.67;80.09
80118;BME280;69424;48.770;-1.564;2023-05-07T00:45:27;101502.65;;;15.73;80.01
80118;BME280;69424;48.770;-1.564;2023-05-07T00:47:59;101500.52;;;15.72;79.97
80118;BME280;69424;48.770;-1.564;2023-05-07T00:50:28;101505.51;;;15.68;79.81
80118;BME280;69424;48.770;-1.564;2023-05-07T00:52:58;101505.67;;;15.70;79.95
80118;BME280;69424;48.770;-1.564;2023-05-07T00:55:26;101504.08;;;15.72;79.68
80118;BME280;69424;48.770;-1.564;2023-05-07T00:57:55;101498.02;;;15.74;79.90
80118;BME280;69424;48.770;-1.564;2023-05-07T01:00:23;101492.16;;;15.76;79.70
80118;BME280;69424;48.770;-1.564;2023-05-07T01:02:53;101494.98;;;15.73;79.74
80118;BME280;69424;48.770;-1.564;2023-05-07T01:05:23;101491.24;;;15.62;79.73
80118;BME280;69424;48.770;-1.564;2023-05-07T01:07:53;101496.40;;;15.50;79.96
80118;BME280;69424;48.770;-1.564;2023-05-07T01:10:23;101499.42;;;15.43;80.18
80118;BME280;69424;48.770;-1.564;2023-05-07T01:12:53;101504.05;;;15.41;80.55
80118;BME280;69424;48.770;-1.564;2023-05-07T01:15:22;101505.30;;;15.35;80.85
80118;BME280;69424;48.770;-1.564;2023-05-07T01:17:50;101509.20;;;15.29;81.00
80118;BME280;69424;48.770;-1.564;2023-05-07T01:20:23;101510.98;;;15.24;81.34
80118;BME280;69424;48.770;-1.564;2023-05-07T01:22:53;101509.20;;;15.23;81.40
80118;BME280;69424;48.770;-1.564;2023-05-07T01:25:21;101505.27;;;15.21;81.35
80118;BME280;69424;48.770;-1.564;2023-05-07T01:27:51;101507.20;;;15.12;81.69
80118;BME280;69424;48.770;-1.564;2023-05-07T01:30:21;101507.39;;;15.12;81.81
80118;BME280;69424;48.770;-1.564;2023-05-07T01:35:37;101500.06;;;15.09;81.59
80118;BME280;69424;48.770;-1.564;2023-05-07T01:38:06;101502.02;;;15.02;81.95
80118;BME280;69424;48.770;-1.564;2023-05-07T01:40:36;101499.69;;;14.98;81.88
80118;BME280;69424;48.770;-1.564;2023-05-07T01:43:04;101506.98;;;14.96;82.11
80118;BME280;69424;48.770;-1.564;2023-05-07T01:45:34;101505.91;;;14.93;82.13
80118;BME280;69424;48.770;-1.564;2023-05-07T01:48:03;101506.45;;;14.92;82.15
80118;BME280;69424;48.770;-1.564;2023-05-07T01:50:33;101506.80;;;14.91;82.27
80118;BME280;69424;48.770;-1.564;2023-05-07T01:53:01;101509.27;;;14.87;82.29
80118;BME280;69424;48.770;-1.564;2023-05-07T01:55:30;101516.39;;;14.83;82.70
80118;BME280;69424;48.770;-1.564;2023-05-07T01:57:58;101522.08;;;14.81;82.79
80118;BME280;69424;48.770;-1.564;2023-05-07T02:00:26;101521.89;;;14.80;82.77
80118;BME280;69424;48.770;-1.564;2023-05-07T02:02:55;101519.60;;;14.86;82.58
80118;BME280;69424;48.770;-1.564;2023-05-07T02:05:28;101519.08;;;14.91;82.55
80118;BME280;69424;48.770;-1.564;2023-05-07T02:08:05;101522.84;;;14.96;82.29
80118;BME280;69424;48.770;-1.564;2023-05-07T02:10:33;101522.50;;;14.98;82.53
80118;BME280;69424;48.770;-1.564;2023-05-07T02:13:01;101525.17;;;15.00;82.48
80118;BME280;69424;48.770;-1.564;2023-05-07T02:15:30;101530.17;;;15.08;82.49
80118;BME280;69424;48.770;-1.564;2023-05-07T02:18:02;101525.21;;;15.15;82.20
80118;BME280;69424;48.770;-1.564;2023-05-07T02:20:31;101525.91;;;15.16;82.06
80118;BME280;69424;48.770;-1.564;2023-05-07T02:23:00;101532.88;;;15.13;82.13
80118;BME280;69424;48.770;-1.564;2023-05-07T02:25:29;101533.05;;;15.11;82.14
80118;BME280;69424;48.770;-1.564;2023-05-07T02:27:58;101533.03;;;15.07;81.84
80118;BME280;69424;48.770;-1.564;2023-05-07T02:30:39;101538.73;;;15.04;82.36
80118;BME280;69424;48.770;-1.564;2023-05-07T02:33:08;101534.09;;;15.01;82.17
80118;BME280;69424;48.770;-1.564;2023-05-07T02:35:37;101539.76;;;14.96;81.90
80118;BME280;69424;48.770;-1.564;2023-05-07T02:38:05;101535.65;;;14.92;82.02
80118;BME280;69424;48.770;-1.564;2023-05-07T02:40:33;101538.48;;;14.89;81.95
80118;BME280;69424;48.770;-1.564;2023-05-07T02:43:02;101538.65;;;14.84;82.05
80118;BME280;69424;48.770;-1.564;2023-05-07T02:45:30;101543.46;;;14.83;82.16
80118;BME280;69424;48.770;-1.564;2023-05-07T02:47:58;101546.13;;;14.84;82.15
80118;BME280;69424;48.770;-1.564;2023-05-07T02:50:26;101547.71;;;14.81;82.01
80118;BME280;69424;48.770;-1.564;2023-05-07T02:52:55;101548.08;;;14.82;82.22
80118;BME280;69424;48.770;-1.564;2023-05-07T02:55:23;101549.67;;;14.81;82.19
80118;BME280;69424;48.770;-1.564;2023-05-07T02:57:51;101551.24;;;14.76;81.97
80118;BME280;69424;48.770;-1.564;2023-05-07T03:00:20;101552.80;;;14.67;82.11
80118;BME280;69424;48.770;-1.564;2023-05-07T03:02:57;101556.33;;;14.61;82.38
80118;BME280;69424;48.770;-1.564;2023-05-07T03:05:25;101560.02;;;14.57;82.07
80118;BME280;69424;48.770;-1.564;2023-05-07T03:07:54;101564.08;;;14.52;82.14
80118;BME280;69424;48.770;-1.564;2023-05-07T03:10:22;101566.17;;;14.45;82.15
80118;BME280;69424;48.770;-1.564;2023-05-07T03:12:50;101564.73;;;14.40;82.07
80118;BME280;69424;48.770;-1.564;2023-05-07T03:15:18;101569.83;;;14.32;82.59
80118;BME280;69424;48.770;-1.564;2023-05-07T03:17:47;101575.52;;;14.31;82.61
80118;BME280;69424;48.770;-1.564;2023-05-07T03:20:15;101578.38;;;14.32;82.67
80118;BME280;69424;48.770;-1.564;2023-05-07T03:22:44;101579.59;;;14.28;82.60
80118;BME280;69424;48.770;-1.564;2023-05-07T03:25:12;101582.58;;;14.22;82.78
80118;BME280;69424;48.770;-1.564;2023-05-07T03:27:41;101582.16;;;14.16;82.73
80118;BME280;69424;48.770;-1.564;2023-05-07T03:30:11;101585.11;;;14.07;82.81
80118;BME280;69424;48.770;-1.564;2023-05-07T03:32:39;101590.79;;;14.03;83.05
80118;BME280;69424;48.770;-1.564;2023-05-07T03:35:09;101592.16;;;13.99;83.00
80118;BME280;69424;48.770;-1.564;2023-05-07T03:37:38;101599.59;;;13.93;83.06
80118;BME280;69424;48.770;-1.564;2023-05-07T03:40:07;101598.52;;;13.91;83.08
80118;BME280;69424;48.770;-1.564;2023-05-07T03:42:43;101598.91;;;13.95;83.14
80118;BME280;69424;48.770;-1.564;2023-05-07T03:45:12;101606.02;;;13.97;82.98
80118;BME280;69424;48.770;-1.564;2023-05-07T03:47:42;101610.48;;;13.98;82.94
80118;BME280;69424;48.770;-1.564;2023-05-07T03:50:12;101613.85;;;13.97;82.85
80118;BME280;69424;48.770;-1.564;2023-05-07T03:52:41;101612.95;;;13.96;82.70
80118;BME280;69424;48.770;-1.564;2023-05-07T03:55:09;101610.27;;;13.96;82.85
80118;BME280;69424;48.770;-1.564;2023-05-07T03:57:38;101610.63;;;13.95;82.88
80118;BME280;69424;48.770;-1.564;2023-05-07T04:00:07;101607.93;;;13.91;82.85
80118;BME280;69424;48.770;-1.564;2023-05-07T04:02:47;101612.80;;;13.80;82.77
80118;BME280;69424;48.770;-1.564;2023-05-07T04:05:18;101619.48;;;13.72;83.45
80118;BME280;69424;48.770;-1.564;2023-05-07T04:07:48;101625.81;;;13.65;83.41
80118;BME280;69424;48.770;-1.564;2023-05-07T04:10:18;101626.13;;;13.62;83.53
80118;BME280;69424;48.770;-1.564;2023-05-07T04:12:47;101625.07;;;13.62;83.51
80118;BME280;69424;48.770;-1.564;2023-05-07T04:15:19;101625.63;;;13.64;83.50
80118;BME280;69424;48.770;-1.564;2023-05-07T04:17:48;101628.67;;;13.67;83.35
80118;BME280;69424;48.770;-1.564;2023-05-07T04:20:17;101628.83;;;13.64;83.02
80118;BME280;69424;48.770;-1.564;2023-05-07T04:22:49;101631.31;;;13.65;83.35
80118;BME280;69424;48.770;-1.564;2023-05-07T04:25:17;101632.80;;;13.71;83.27
80118;BME280;69424;48.770;-1.564;2023-05-07T04:27:45;101631.29;;;13.80;83.11
80118;BME280;69424;48.770;-1.564;2023-05-07T04:30:14;101630.27;;;13.84;82.95
80118;BME280;69424;48.770;-1.564;2023-05-07T04:32:43;101628.62;;;13.79;82.95
80118;BME280;69424;48.770;-1.564;2023-05-07T04:35:12;101633.87;;;13.71;82.95
80118;BME280;69424;48.770;-1.564;2023-05-07T04:37:41;101634.17;;;13.66;83.10
80118;BME280;69424;48.770;-1.564;2023-05-07T04:40:09;101633.25;;;13.62;83.39
80118;BME280;69424;48.770;-1.564;2023-05-07T04:42:38;101635.22;;;13.64;83.38
80118;BME280;69424;48.770;-1.564;2023-05-07T04:45:06;101633.98;;;13.64;83.00
80118;BME280;69424;48.770;-1.564;2023-05-07T04:47:37;101636.61;;;13.61;83.05
80118;BME280;69424;48.770;-1.564;2023-05-07T04:50:06;101638.70;;;13.58;83.13
80118;BME280;69424;48.770;-1.564;2023-05-07T04:52:36;101640.77;;;13.51;83.08
80118;BME280;69424;48.770;-1.564;2023-05-07T04:55:04;101641.61;;;13.47;83.38
80118;BME280;69424;48.770;-1.564;2023-05-07T04:57:36;101642.11;;;13.45;83.43
80118;BME280;69424;48.770;-1.564;2023-05-07T05:00:06;101646.15;;;13.41;83.83
80118;BME280;69424;48.770;-1.564;2023-05-07T05:02:36;101648.98;;;13.40;83.86
80118;BME280;69424;48.770;-1.564;2023-05-07T05:05:06;101653.02;;;13.36;83.86
80118;BME280;69424;48.770;-1.564;2023-05-07T05:07:35;101655.08;;;13.32;83.98
80118;BME280;69424;48.770;-1.564;2023-05-07T05:10:05;101658.24;;;13.30;83.96
80118;BME280;69424;48.770;-1.564;2023-05-07T05:12:34;101661.23;;;13.28;84.20
80118;BME280;69424;48.770;-1.564;2023-05-07T05:15:03;101665.30;;;13.26;84.27
80118;BME280;69424;48.770;-1.564;2023-05-07T05:17:32;101662.41;;;13.23;84.16
80118;BME280;69424;48.770;-1.564;2023-05-07T05:20:03;101662.92;;;13.20;84.50
80118;BME280;69424;48.770;-1.564;2023-05-07T05:22:32;101665.91;;;13.18;84.30
80118;BME280;69424;48.770;-1.564;2023-05-07T05:25:01;101668.95;;;13.19;84.55
80118;BME280;69424;48.770;-1.564;2023-05-07T05:27:30;101676.41;;;13.18;84.62
80118;BME280;69424;48.770;-1.564;2023-05-07T05:29:59;101683.87;;;13.19;84.42
80118;BME280;69424;48.770;-1.564;2023-05-07T05:32:28;101685.67;;;13.21;84.34
80118;BME280;69424;48.770;-1.564;2023-05-07T05:34:56;101685.14;;;13.21;84.10
80118;BME280;69424;48.770;-1.564;2023-05-07T05:37:25;101685.13;;;13.20;84.29
80118;BME280;69424;48.770;-1.564;2023-05-07T05:39:53;101689.58;;;13.22;84.34
80118;BME280;69424;48.770;-1.564;2023-05-07T05:42:23;101693.18;;;13.25;84.34
80118;BME280;69424;48.770;-1.564;2023-05-07T05:44:51;101695.35;;;13.29;84.22
80118;BME280;69424;48.770;-1.564;2023-05-07T05:47:19;101698.02;;;13.27;84.20
80118;BME280;69424;48.770;-1.564;2023-05-07T05:49:48;101707.34;;;13.22;84.12
80118;BME280;69424;48.770;-1.564;2023-05-07T05:52:16;101712.21;;;13.14;84.25
80118;BME280;69424;48.770;-1.564;2023-05-07T05:54:46;101713.52;;;13.06;84.36
80118;BME280;69424;48.770;-1.564;2023-05-07T05:57:15;101715.41;;;13.02;84.40
80118;BME280;69424;48.770;-1.564;2023-05-07T05:59:46;101716.09;;;12.99;84.25
80118;BME280;69424;48.770;-1.564;2023-05-07T06:02:15;101721.20;;;12.97;84.45
80118;BME280;69424;48.770;-1.564;2023-05-07T06:04:43;101727.55;;;12.95;84.29
80118;BME280;69424;48.770;-1.564;2023-05-07T06:07:14;101732.10;;;12.90;84.26
80118;BME280;69424;48.770;-1.564;2023-05-07T06:09:42;101736.79;;;12.83;84.35
80118;BME280;69424;48.770;-1.564;2023-05-07T06:12:11;101739.55;;;12.78;84.36
80118;BME280;69424;48.770;-1.564;2023-05-07T06:14:39;101733.48;;;12.76;84.42
80118;BME280;69424;48.770;-1.564;2023-05-07T06:17:08;101731.86;;;12.75;84.08
80118;BME280;69424;48.770;-1.564;2023-05-07T06:19:37;101732.23;;;12.76;84.22
80118;BME280;69424;48.770;-1.564;2023-05-07T06:22:05;101736.89;;;12.78;84.27
80118;BME280;69424;48.770;-1.564;2023-05-07T06:24:34;101740.62;;;12.78;83.95
80118;BME280;69424;48.770;-1.564;2023-05-07T06:27:02;101747.00;;;12.78;83.62
80118;BME280;69424;48.770;-1.564;2023-05-07T06:29:30;101751.13;;;12.79;83.66
80118;BME280;69424;48.770;-1.564;2023-05-07T06:32:07;101749.34;;;12.80;83.41
80118;BME280;69424;48.770;-1.564;2023-05-07T06:34:36;101754.80;;;12.77;83.12
80118;BME280;69424;48.770;-1.564;2023-05-07T06:37:05;101751.61;;;12.78;83.45
80118;BME280;69424;48.770;-1.564;2023-05-07T06:40:03;101756.46;;;12.81;83.48
80118;BME280;69424;48.770;-1.564;2023-05-07T06:42:31;101758.14;;;12.86;83.41
80118;BME280;69424;48.770;-1.564;2023-05-07T06:45:06;101757.70;;;12.92;83.38
80118;BME280;69424;48.770;-1.564;2023-05-07T06:47:35;101764.16;;;12.97;83.34
80118;BME280;69424;48.770;-1.564;2023-05-07T06:50:03;101767.44;;;13.02;83.41
80118;BME280;69424;48.770;-1.564;2023-05-07T06:52:32;101772.14;;;13.07;83.37
80118;BME280;69424;48.770;-1.564;2023-05-07T06:55:01;101778.90;;;13.08;83.44
80118;BME280;69424;48.770;-1.564;2023-05-07T06:57:29;101780.86;;;13.08;83.60
80118;BME280;69424;48.770;-1.564;2023-05-07T06:59:57;101778.94;;;13.11;83.85
80118;BME280;69424;48.770;-1.564;2023-05-07T07:02:26;101781.52;;;13.16;83.70
80118;BME280;69424;48.770;-1.564;2023-05-07T07:04:55;101777.50;;;13.20;83.57
80118;BME280;69424;48.770;-1.564;2023-05-07T07:07:23;101784.66;;;13.26;83.42
80118;BME280;69424;48.770;-1.564;2023-05-07T07:09:51;101784.20;;;13.29;83.32
80118;BME280;69424;48.770;-1.564;2023-05-07T07:12:19;101784.23;;;13.31;83.36
80118;BME280;69424;48.770;-1.564;2023-05-07T07:14:47;101785.41;;;13.38;83.44
80118;BME280;69424;48.770;-1.564;2023-05-07T07:17:15;101786.10;;;13.49;83.05
80118;BME280;69424;48.770;-1.564;2023-05-07T07:19:44;101788.80;;;13.51;82.78
80118;BME280;69424;48.770;-1.564;2023-05-07T07:22:12;101788.23;;;13.49;83.07
80118;BME280;69424;48.770;-1.564;2023-05-07T07:24:40;101790.02;;;13.50;82.96
80118;BME280;69424;48.770;-1.564;2023-05-07T07:27:09;101794.13;;;13.52;82.92
80118;BME280;69424;48.770;-1.564;2023-05-07T07:29:37;101799.92;;;13.59;82.84
80118;BME280;69424;48.770;-1.564;2023-05-07T07:32:05;101803.60;;;13.69;83.11
80118;BME280;69424;48.770;-1.564;2023-05-07T07:34:35;101807.69;;;13.82;82.75
80118;BME280;69424;48.770;-1.564;2023-05-07T07:37:03;101809.17;;;13.88;82.21
80118;BME280;69424;48.770;-1.564;2023-05-07T07:39:34;101803.65;;;13.87;81.88
80118;BME280;69424;48.770;-1.564;2023-05-07T07:42:03;101797.06;;;13.85;81.77
80118;BME280;69424;48.770;-1.564;2023-05-07T07:44:31;101797.08;;;13.87;82.03
80118;BME280;69424;48.770;-1.564;2023-05-07T07:47:03;101801.41;;;13.93;81.97
80118;BME280;69424;48.770;-1.564;2023-05-07T07:49:32;101805.04;;;13.98;81.96
80118;BME280;69424;48.770;-1.564;2023-05-07T07:52:02;101811.50;;;14.03;81.78
80118;BME280;69424;48.770;-1.564;2023-05-07T07:54:31;101820.51;;;14.12;82.06
80118;BME280;69424;48.770;-1.564;2023-05-07T07:57:00;101818.16;;;14.26;81.90
80118;BME280;69424;48.770;-1.564;2023-05-07T07:59:31;101821.30;;;14.37;81.10
80118;BME280;69424;48.770;-1.564;2023-05-07T08:01:59;101819.05;;;14.44;80.63
80118;BME280;69424;48.770;-1.564;2023-05-07T08:04:28;101819.33;;;14.52;80.80
80118;BME280;69424;48.770;-1.564;2023-05-07T08:07:00;101825.54;;;14.65;80.71
80118;BME280;69424;48.770;-1.564;2023-05-07T08:09:29;101836.55;;;14.83;80.05
80118;BME280;69424;48.770;-1.564;2023-05-07T08:11:58;101836.64;;;14.92;79.46
80118;BME280;69424;48.770;-1.564;2023-05-07T08:14:26;101840.25;;;14.98;79.11
80118;BME280;69424;48.770;-1.564;2023-05-07T08:16:56;101836.89;;;15.00;78.57
80118;BME280;69424;48.770;-1.564;2023-05-07T08:19:25;101837.95;;;15.00;78.58
80118;BME280;69424;48.770;-1.564;2023-05-07T08:21:53;101841.52;;;14.99;78.11
80118;BME280;69424;48.770;-1.564;2023-05-07T08:24:24;101842.52;;;14.93;78.47
80118;BME280;69424;48.770;-1.564;2023-05-07T08:26:52;101839.50;;;14.93;78.41
80118;BME280;69424;48.770;-1.564;2023-05-07T08:29:20;101841.17;;;15.01;78.43
80118;BME280;69424;48.770;-1.564;2023-05-07T08:31:48;101839.98;;;15.09;77.36
80118;BME280;69424;48.770;-1.564;2023-05-07T08:34:17;101842.86;;;15.12;77.24
80118;BME280;69424;48.770;-1.564;2023-05-07T08:36:46;101845.18;;;15.13;76.84
80118;BME280;69424;48.770;-1.564;2023-05-07T08:39:17;101848.58;;;15.15;77.08
80118;BME280;69424;48.770;-1.564;2023-05-07T08:41:48;101847.39;;;15.22;77.04
80118;BME280;69424;48.770;-1.564;2023-05-07T08:44:17;101850.53;;;15.38;76.53
80118;BME280;69424;48.770;-1.564;2023-05-07T08:46:51;101849.18;;;15.49;75.80
80118;BME280;69424;48.770;-1.564;2023-05-07T08:49:22;101842.98;;;15.54;75.34
80118;BME280;69424;48.770;-1.564;2023-05-07T08:51:50;101842.83;;;15.63;75.50
80118;BME280;69424;48.770;-1.564;2023-05-07T08:54:21;101842.71;;;15.70;75.06
80118;BME280;69424;48.770;-1.564;2023-05-07T08:56:49;101844.41;;;15.83;75.45
80118;BME280;69424;48.770;-1.564;2023-05-07T08:59:18;101849.83;;;15.95;74.62
80118;BME280;69424;48.770;-1.564;2023-05-07T09:01:46;101851.98;;;16.00;74.09
80118;BME280;69424;48.770;-1.564;2023-05-07T09:04:14;101854.15;;;16.06;73.71
80118;BME280;69424;48.770;-1.564;2023-05-07T09:06:43;101854.34;;;16.11;73.52
80118;BME280;69424;48.770;-1.564;2023-05-07T09:09:14;101854.38;;;16.18;73.39
80118;BME280;69424;48.770;-1.564;2023-05-07T09:11:45;101854.40;;;16.26;72.88
80118;BME280;69424;48.770;-1.564;2023-05-07T09:14:14;101855.48;;;16.34;72.85
80118;BME280;69424;48.770;-1.564;2023-05-07T09:16:43;101855.88;;;16.42;71.93
80118;BME280;69424;48.770;-1.564;2023-05-07T09:19:11;101851.95;;;16.44;72.38
80118;BME280;69424;48.770;-1.564;2023-05-07T09:21:44;101859.13;;;16.57;72.38
80118;BME280;69424;48.770;-1.564;2023-05-07T09:24:15;101865.04;;;16.63;71.51
80118;BME280;69424;48.770;-1.564;2023-05-07T09:26:44;101868.42;;;16.65;71.60
80118;BME280;69424;48.770;-1.564;2023-05-07T09:29:15;101871.30;;;16.73;71.42
80118;BME280;69424;48.770;-1.564;2023-05-07T09:31:45;101870.60;;;16.82;70.93
80118;BME280;69424;48.770;-1.564;2023-05-07T09:34:15;101876.71;;;16.88;70.46
80118;BME280;69424;48.770;-1.564;2023-05-07T09:36:45;101880.45;;;16.91;70.30
80118;BME280;69424;48.770;-1.564;2023-05-07T09:39:13;101880.65;;;16.91;70.13
80118;BME280;69424;48.770;-1.564;2023-05-07T09:41:48;101884.04;;;16.90;70.45
80118;BME280;69424;48.770;-1.564;2023-05-07T09:44:32;101887.45;;;17.05;70.40
80118;BME280;69424;48.770;-1.564;2023-05-07T09:47:04;101888.34;;;17.19;69.98
80118;BME280;69424;48.770;-1.564;2023-05-07T09:49:39;101897.81;;;17.29;68.82
80118;BME280;69424;48.770;-1.564;2023-05-07T09:52:13;101899.05;;;17.33;68.84
80118;BME280;69424;48.770;-1.564;2023-05-07T09:54:46;101901.92;;;17.35;68.75
80118;BME280;69424;48.770;-1.564;2023-05-07T09:57:16;101906.04;;;17.39;67.96
80118;BME280;69424;48.770;-1.564;2023-05-07T09:59:50;101908.00;;;17.36;68.26
80118;BME280;69424;48.770;-1.564;2023-05-07T10:02:20;101912.64;;;17.34;68.28
80118;BME280;69424;48.770;-1.564;2023-05-07T10:04:52;101909.79;;;17.27;68.24
80118;BME280;69424;48.770;-1.564;2023-05-07T10:07:24;101914.80;;;17.26;68.24
80118;BME280;69424;48.770;-1.564;2023-05-07T10:09:55;101919.62;;;17.27;67.98
80118;BME280;69424;48.770;-1.564;2023-05-07T10:12:32;101918.73;;;17.27;68.34
80118;BME280;69424;48.770;-1.564;2023-05-07T10:15:09;101918.90;;;17.25;68.09
80118;BME280;69424;48.770;-1.564;2023-05-07T10:17:39;101923.38;;;17.25;67.96
80118;BME280;69424;48.770;-1.564;2023-05-07T10:20:09;101924.98;;;17.31;68.09
80118;BME280;69424;48.770;-1.564;2023-05-07T10:22:43;101930.88;;;17.42;67.61
80118;BME280;69424;48.770;-1.564;2023-05-07T10:25:28;101935.17;;;17.53;67.65
80118;BME280;69424;48.770;-1.564;2023-05-07T10:28:06;101938.56;;;17.67;67.19
80118;BME280;69424;48.770;-1.564;2023-05-07T10:33:11;101944.44;;;18.00;66.82
80118;BME280;69424;48.770;-1.564;2023-05-07T10:35:45;101945.27;;;18.19;65.70
80118;BME280;69424;48.770;-1.564;2023-05-07T10:38:15;101947.73;;;18.28;65.13
80118;BME280;69424;48.770;-1.564;2023-05-07T10:40:44;101944.84;;;18.40;65.37
80118;BME280;69424;48.770;-1.564;2023-05-07T10:43:16;101941.33;;;18.60;64.64
80118;BME280;69424;48.770;-1.564;2023-05-07T10:46:16;101944.10;;;18.80;64.23
80118;BME280;69424;48.770;-1.564;2023-05-07T10:52:14;101949.42;;;18.93;63.19
80118;BME280;69424;48.770;-1.564;2023-05-07T10:55:20;101952.29;;;18.94;63.17
80118;BME280;69424;48.770;-1.564;2023-05-07T10:58:27;101959.07;;;18.97;63.20
80118;BME280;69424;48.770;-1.564;2023-05-07T11:04:28;101959.04;;;19.00;62.72
80118;BME280;69424;48.770;-1.564;2023-05-07T11:07:28;101959.89;;;19.08;61.73
80118;BME280;69424;48.770;-1.564;2023-05-07T11:10:01;101961.69;;;19.10;62.16
80118;BME280;69424;48.770;-1.564;2023-05-07T11:15:14;101973.48;;;18.86;62.03
80118;BME280;69424;48.770;-1.564;2023-05-07T11:17:58;101976.17;;;18.77;62.95
80118;BME280;69424;48.770;-1.564;2023-05-07T11:20:57;101984.42;;;18.76;62.68
80118;BME280;69424;48.770;-1.564;2023-05-07T11:26:30;101990.91;;;18.69;62.40
80118;BME280;69424;48.770;-1.564;2023-05-07T11:28:59;101995.96;;;18.64;63.09
80118;BME280;69424;48.770;-1.564;2023-05-07T11:31:28;102003.98;;;18.71;63.30
80118;BME280;69424;48.770;-1.564;2023-05-07T11:33:59;102006.99;;;18.78;62.42
80118;BME280;69424;48.770;-1.564;2023-05-07T11:36:31;102004.85;;;18.77;62.62
80118;BME280;69424;48.770;-1.564;2023-05-07T11:39:00;102005.20;;;18.80;62.49
80118;BME280;69424;48.770;-1.564;2023-05-07T11:41:36;102004.84;;;18.83;62.16
80118;BME280;69424;48.770;-1.564;2023-05-07T11:44:05;102009.19;;;18.73;62.39
80118;BME280;69424;48.770;-1.564;2023-05-07T11:46:33;102013.29;;;18.78;62.66
80118;BME280;69424;48.770;-1.564;2023-05-07T11:49:01;102017.21;;;18.84;62.46
80118;BME280;69424;48.770;-1.564;2023-05-07T11:51:30;102019.16;;;18.83;62.02
80118;BME280;69424;48.770;-1.564;2023-05-07T11:53:58;102022.95;;;18.78;62.31
80118;BME280;69424;48.770;-1.564;2023-05-07T11:56:26;102022.59;;;18.78;62.60
80118;BME280;69424;48.770;-1.564;2023-05-07T11:58:54;102027.98;;;18.73;62.44
80118;BME280;69424;48.770;-1.564;2023-05-07T12:01:22;102030.00;;;18.66;63.21
80118;BME280;69424;48.770;-1.564;2023-05-07T12:03:50;102030.70;;;18.69;63.29
80118;BME280;69424;48.770;-1.564;2023-05-07T12:06:19;102037.31;;;18.72;62.82
80118;BME280;69424;48.770;-1.564;2023-05-07T12:08:47;102038.42;;;18.63;62.68
80118;BME280;69424;48.770;-1.564;2023-05-07T12:11:22;102050.46;;;18.54;63.12
80118;BME280;69424;48.770;-1.564;2023-05-07T12:13:51;102056.73;;;18.55;63.04
80118;BME280;69424;48.770;-1.564;2023-05-07T12:16:26;102053.34;;;18.52;63.02
80118;BME280;69424;48.770;-1.564;2023-05-07T12:18:54;102053.69;;;18.48;62.91
80118;BME280;69424;48.770;-1.564;2023-05-07T12:21:23;102058.55;;;18.45;63.12
80118;BME280;69424;48.770;-1.564;2023-05-07T12:23:53;102059.79;;;18.46;63.45
80118;BME280;69424;48.770;-1.564;2023-05-07T12:26:20;102062.11;;;18.50;62.38
80118;BME280;69424;48.770;-1.564;2023-05-07T12:28:50;102064.98;;;18.48;62.60
80118;BME280;69424;48.770;-1.564;2023-05-07T12:31:18;102064.27;;;18.49;62.54
80118;BME280;69424;48.770;-1.564;2023-05-07T12:33:46;102057.63;;;18.48;62.64
80118;BME280;69424;48.770;-1.564;2023-05-07T12:36:15;102063.56;;;18.41;61.90
80118;BME280;69424;48.770;-1.564;2023-05-07T12:38:43;102066.10;;;18.30;62.86
80118;BME280;69424;48.770;-1.564;2023-05-07T12:41:11;102067.16;;;18.36;62.83
80118;BME280;69424;48.770;-1.564;2023-05-07T12:43:43;102071.64;;;18.40;62.74
80118;BME280;69424;48.770;-1.564;2023-05-07T12:46:12;102074.31;;;18.44;62.08
80118;BME280;69424;48.770;-1.564;2023-05-07T12:48:46;102075.21;;;18.45;61.92
80118;BME280;69424;48.770;-1.564;2023-05-07T12:51:15;102073.57;;;18.52;62.36
80118;BME280;69424;48.770;-1.564;2023-05-07T12:53:45;102072.48;;;18.60;61.41
80118;BME280;69424;48.770;-1.564;2023-05-07T12:56:15;102075.52;;;18.59;61.12
80118;BME280;69424;48.770;-1.564;2023-05-07T12:58:43;102073.86;;;18.74;61.95
80118;BME280;69424;48.770;-1.564;2023-05-07T13:01:12;102072.38;;;18.95;61.06
80118;BME280;69424;48.770;-1.564;2023-05-07T13:03:48;102068.92;;;19.07;60.42
80118;BME280;69424;48.770;-1.564;2023-05-07T13:06:16;102070.84;;;19.14;59.54
80118;BME280;69424;48.770;-1.564;2023-05-07T13:08:45;102071.94;;;19.11;58.96
80118;BME280;69424;48.770;-1.564;2023-05-07T13:11:13;102071.23;;;19.09;59.52
80118;BME280;69424;48.770;-1.564;2023-05-07T13:13:41;102073.59;;;19.06;58.24